createdAt,value
2022-11-10T00:02:08.505Z,9.59
2022-11-10T00:04:53.969Z,9.59
2022-11-10T00:07:39.470Z,9.46
2022-11-10T00:10:27.696Z,9.68
2022-11-10T00:13:13.186Z,9.81
2022-11-10T00:16:21.841Z,9.47
2022-11-10T00:19:07.366Z,9.45
2022-11-10T00:21:52.925Z,9.45
2022-11-10T00:24:38.446Z,9.48
2022-11-10T00:27:23.690Z,9.56
2022-11-10T00:30:09.384Z,9.47
2022-11-10T00:32:54.465Z,9.46
2022-11-10T00:35:39.781Z,9.43
2022-11-10T00:38:25.158Z,9.47
2022-11-10T00:41:10.606Z,9.57
2022-11-10T00:43:56.079Z,9.60
2022-11-10T00:46:41.305Z,9.52
2022-11-10T00:49:27.411Z,9.48
2022-11-10T00:52:12.819Z,9.52
2022-11-10T00:54:58.369Z,9.59
2022-11-10T00:57:43.847Z,9.51
2022-11-10T01:00:29.338Z,9.61
2022-11-10T01:03:16.354Z,9.57
2022-11-10T01:06:12.764Z,9.55
2022-11-10T01:08:58.130Z,9.72
2022-11-10T01:11:43.182Z,9.72
2022-11-10T01:14:28.851Z,9.80
2022-11-10T01:17:14.115Z,9.78
2022-11-10T01:19:59.650Z,9.76
2022-11-10T01:22:44.857Z,9.62
2022-11-10T01:25:30.030Z,9.54
2022-11-10T01:28:15.361Z,9.50
2022-11-10T01:31:06.210Z,9.58
2022-11-10T01:33:51.706Z,9.61
2022-11-10T01:36:37.210Z,9.49
2022-11-10T01:39:22.613Z,9.43
2022-11-10T01:42:08.251Z,9.49
2022-11-10T01:45:24.232Z,9.55
2022-11-10T01:48:12.699Z,9.60
2022-11-10T01:51:02.519Z,9.56
2022-11-10T01:53:51.374Z,9.59
2022-11-10T01:56:40.149Z,9.58
2022-11-10T01:59:27.921Z,9.61
2022-11-10T02:02:25.617Z,9.45
2022-11-10T02:05:10.952Z,9.44
2022-11-10T02:07:59.576Z,9.51
2022-11-10T02:10:44.850Z,9.57
2022-11-10T02:13:30.521Z,9.60
2022-11-10T02:16:15.713Z,9.63
2022-11-10T02:19:24.905Z,9.68
2022-11-10T02:22:10.161Z,9.75
2022-11-10T02:24:55.637Z,9.76
2022-11-10T02:27:40.812Z,9.74
2022-11-10T02:30:29.274Z,9.72
2022-11-10T02:33:14.314Z,9.74
2022-11-10T02:35:59.748Z,9.81
2022-11-10T02:38:45.275Z,9.84
2022-11-10T02:41:30.850Z,9.83
2022-11-10T02:44:16.130Z,9.83
2022-11-10T02:47:01.570Z,9.83
2022-11-10T02:49:46.800Z,9.83
2022-11-10T02:52:32.257Z,9.84
2022-11-10T02:55:17.821Z,9.84
2022-11-10T02:58:03.689Z,9.81
2022-11-10T03:00:48.957Z,9.83
2022-11-10T03:03:34.965Z,9.81
2022-11-10T03:06:20.360Z,9.83
2022-11-10T03:09:12.164Z,9.90
2022-11-10T03:11:57.717Z,9.90
2022-11-10T03:14:42.980Z,9.87
2022-11-10T03:17:28.220Z,9.84
2022-11-10T03:20:13.900Z,9.82
2022-11-10T03:23:03.868Z,9.74
2022-11-10T03:25:49.453Z,9.74
2022-11-10T03:28:34.841Z,9.80
2022-11-10T03:31:20.541Z,9.75
2022-11-10T03:34:06.270Z,9.76
2022-11-10T03:36:51.422Z,9.77
2022-11-10T03:39:36.699Z,9.82
2022-11-10T03:42:22.178Z,9.87
2022-11-10T03:45:07.653Z,9.87
2022-11-10T03:47:52.996Z,9.75
2022-11-10T03:50:38.139Z,9.73
2022-11-10T03:53:23.675Z,9.67
2022-11-10T03:56:09.377Z,9.68
2022-11-10T03:58:54.599Z,9.61
2022-11-10T04:01:40.120Z,9.58
2022-11-10T04:04:44.256Z,9.57
2022-11-10T04:07:48.268Z,9.52
2022-11-10T04:10:35.867Z,9.53
2022-11-10T04:13:40.371Z,9.57
2022-11-10T04:16:25.909Z,9.62
2022-11-10T04:19:11.128Z,9.58
2022-11-10T04:21:57.002Z,9.54
2022-11-10T04:24:42.313Z,9.54
2022-11-10T04:27:27.505Z,9.62
2022-11-10T04:30:12.983Z,9.66
2022-11-10T04:33:01.254Z,9.57
2022-11-10T04:35:46.480Z,9.52
2022-11-10T04:38:31.865Z,9.48
2022-11-10T04:41:17.405Z,9.49
2022-11-10T04:44:02.814Z,9.50
2022-11-10T04:46:47.957Z,9.51
2022-11-10T04:49:33.662Z,9.47
2022-11-10T04:52:18.838Z,9.47
2022-11-10T04:55:04.624Z,9.50
2022-11-10T04:57:49.765Z,9.48
2022-11-10T05:00:35.995Z,9.49
2022-11-10T05:03:22.003Z,9.48
2022-11-10T05:06:07.670Z,9.48
2022-11-10T05:08:52.975Z,9.51
2022-11-10T05:11:38.132Z,9.50
2022-11-10T05:14:23.493Z,9.49
2022-11-10T05:17:09.112Z,9.45
2022-11-10T05:19:54.367Z,9.42
2022-11-10T05:22:39.931Z,9.49
2022-11-10T05:25:25.311Z,9.46
2022-11-10T05:28:11.944Z,9.42
2022-11-10T05:30:57.209Z,9.46
2022-11-10T05:33:42.353Z,9.49
2022-11-10T05:36:28.002Z,9.49
2022-11-10T05:39:13.477Z,9.46
2022-11-10T05:41:58.999Z,9.47
2022-11-10T05:44:44.567Z,9.46
2022-11-10T05:47:29.983Z,9.49
2022-11-10T05:50:16.433Z,9.49
2022-11-10T05:53:02.023Z,9.58
2022-11-10T05:55:47.234Z,9.56
2022-11-10T05:58:32.480Z,9.64
2022-11-10T06:01:17.938Z,9.63
2022-11-10T06:04:03.624Z,9.63
2022-11-10T06:06:49.264Z,9.69
2022-11-10T06:09:35.375Z,9.66
2022-11-10T06:12:21.754Z,9.70
2022-11-10T06:15:08.181Z,9.73
2022-11-10T06:17:54.504Z,9.69
2022-11-10T06:20:39.994Z,9.75
2022-11-10T06:23:25.451Z,9.77
2022-11-10T06:26:11.258Z,9.80
2022-11-10T06:28:57.805Z,9.76
2022-11-10T06:31:43.253Z,9.81
2022-11-10T06:34:28.926Z,9.84
2022-11-10T06:37:14.218Z,9.90
2022-11-10T06:39:59.689Z,10.03
2022-11-10T06:42:45.187Z,10.06
2022-11-10T06:45:30.611Z,10.17
2022-11-10T06:48:15.952Z,10.19
2022-11-10T06:51:02.321Z,10.17
2022-11-10T06:53:47.974Z,10.01
2022-11-10T06:56:33.361Z,10.11
2022-11-10T06:59:18.741Z,10.07
2022-11-10T07:02:04.310Z,10.04
2022-11-10T07:04:50.760Z,10.10
2022-11-10T07:07:36.537Z,10.12
2022-11-10T07:10:22.037Z,10.19
2022-11-10T07:13:07.388Z,10.17
2022-11-10T07:15:52.921Z,10.18
2022-11-10T07:18:38.145Z,10.21
2022-11-10T07:21:23.512Z,10.35
2022-11-10T07:24:09.144Z,10.44
2022-11-10T07:26:54.608Z,10.49
2022-11-10T07:29:40.178Z,10.49
2022-11-10T07:32:25.772Z,10.55
2022-11-10T07:35:11.651Z,10.71
2022-11-10T07:37:58.593Z,10.76
2022-11-10T07:40:43.952Z,10.77
2022-11-10T07:43:29.445Z,10.77
2022-11-10T07:46:14.591Z,10.89
2022-11-10T07:48:59.857Z,11.04
2022-11-10T07:51:45.282Z,11.09
2022-11-10T07:54:30.517Z,11.19
2022-11-10T07:57:15.804Z,11.24
2022-11-10T08:00:01.138Z,11.19
2022-11-10T08:02:46.490Z,11.25
2022-11-10T08:05:32.370Z,11.38
2022-11-10T08:08:18.113Z,11.52
2022-11-10T08:11:03.443Z,11.60
2022-11-10T08:13:48.730Z,11.77
2022-11-10T08:16:34.026Z,11.84
2022-11-10T08:19:19.628Z,11.62
2022-11-10T08:22:04.874Z,11.82
2022-11-10T08:24:50.111Z,11.81
2022-11-10T08:27:35.674Z,11.72
2022-11-10T08:30:20.891Z,11.56
2022-11-10T08:33:08.785Z,11.73
2022-11-10T08:35:54.062Z,11.89
2022-11-10T08:38:39.334Z,11.86
2022-11-10T08:41:24.516Z,12.08
2022-11-10T08:44:11.187Z,11.90
2022-11-10T08:46:56.683Z,11.81
2022-11-10T08:49:42.193Z,11.99
2022-11-10T08:52:27.748Z,11.93
2022-11-10T08:55:12.969Z,11.80
2022-11-10T08:58:02.353Z,11.67
2022-11-10T09:00:48.021Z,11.46
2022-11-10T09:03:33.556Z,11.23
2022-11-10T09:06:19.000Z,11.16
2022-11-10T09:09:04.522Z,11.23
2022-11-10T09:11:49.823Z,11.42
2022-11-10T09:14:39.682Z,11.63
2022-11-10T09:17:25.388Z,11.98
2022-11-10T09:20:32.714Z,12.67
2022-11-10T09:23:19.557Z,13.13
2022-11-10T09:26:08.509Z,13.02
2022-11-10T09:28:53.605Z,12.86
2022-11-10T09:31:38.938Z,12.67
2022-11-10T09:34:24.198Z,12.44
2022-11-10T09:37:09.968Z,12.52
2022-11-10T09:39:55.931Z,12.30
2022-11-10T09:42:46.961Z,12.11
2022-11-10T09:45:42.877Z,12.28
2022-11-10T09:48:33.609Z,11.96
2022-11-10T09:51:25.497Z,11.99
2022-11-10T09:54:29.556Z,12.05
2022-11-10T09:57:17.628Z,11.91
2022-11-10T10:00:04.734Z,11.82
2022-11-10T10:02:58.012Z,11.69
2022-11-10T10:05:55.405Z,11.77
2022-11-10T10:08:49.136Z,11.65
2022-11-10T10:11:53.243Z,11.67
2022-11-10T10:14:57.164Z,11.86
2022-11-10T10:18:03.067Z,11.78
2022-11-10T10:21:17.615Z,12.38
2022-11-10T10:24:10.231Z,12.58
2022-11-10T10:27:02.875Z,12.66
2022-11-10T10:29:49.540Z,12.80
2022-11-10T10:32:34.999Z,12.89
2022-11-10T10:35:20.377Z,13.17
2022-11-10T10:38:12.779Z,13.33
2022-11-10T10:41:04.055Z,13.23
2022-11-10T10:43:50.590Z,13.12
2022-11-10T10:47:08.597Z,13.01
2022-11-10T10:50:17.034Z,13.16
2022-11-10T10:53:12.435Z,13.32
2022-11-10T10:56:05.941Z,13.43
2022-11-10T10:58:54.290Z,13.58
2022-11-10T11:01:39.915Z,13.77
2022-11-10T11:04:35.929Z,13.78
2022-11-10T11:07:25.070Z,14.09
2022-11-10T11:10:22.379Z,14.23
2022-11-10T11:13:27.662Z,14.42
2022-11-10T11:16:13.068Z,14.32
2022-11-10T11:18:58.846Z,14.30
2022-11-10T11:21:53.481Z,14.46
2022-11-10T11:24:56.715Z,14.24
2022-11-10T11:28:05.170Z,14.30
2022-11-10T11:31:19.584Z,14.20
2022-11-10T11:34:23.940Z,14.07
2022-11-10T11:37:21.513Z,14.36
2022-11-10T11:40:25.356Z,13.85
2022-11-10T11:43:35.576Z,13.72
2022-11-10T11:46:36.785Z,13.57
2022-11-10T11:49:42.012Z,13.57
2022-11-10T11:52:39.045Z,13.48
2022-11-10T11:55:39.639Z,13.45
2022-11-10T11:58:37.917Z,13.26
2022-11-10T12:01:39.359Z,13.29
2022-11-10T12:05:08.515Z,12.93
2022-11-10T12:08:12.321Z,12.84
2022-11-10T12:11:14.108Z,12.94
2022-11-10T12:14:18.839Z,12.88
2022-11-10T12:17:29.974Z,12.76
2022-11-10T12:20:49.885Z,12.47
2022-11-10T12:23:54.805Z,12.54
2022-11-10T12:26:57.187Z,12.40
2022-11-10T12:30:12.556Z,12.29
2022-11-10T12:33:26.084Z,12.40
2022-11-10T12:36:13.777Z,12.46
2022-11-10T12:39:09.925Z,12.30
2022-11-10T12:41:59.598Z,12.34
2022-11-10T12:45:07.759Z,12.30
2022-11-10T12:47:53.762Z,12.32
2022-11-10T12:50:48.660Z,12.44
2022-11-10T12:53:37.137Z,12.41
2022-11-10T12:56:28.118Z,12.36
2022-11-10T12:59:28.033Z,12.16
2022-11-10T13:02:25.315Z,12.08
2022-11-10T13:05:40.915Z,11.92
2022-11-10T13:08:27.959Z,11.99
2022-11-10T13:11:13.257Z,11.92
2022-11-10T13:14:04.201Z,11.87
2022-11-10T13:16:54.255Z,11.74
2022-11-10T13:19:39.810Z,11.73
2022-11-10T13:22:29.692Z,11.77
2022-11-10T13:25:37.362Z,11.80
2022-11-10T13:28:47.420Z,12.04
2022-11-10T13:31:32.442Z,11.95
2022-11-10T13:34:17.945Z,12.06
2022-11-10T13:37:29.136Z,12.04
2022-11-10T13:40:17.257Z,12.06
2022-11-10T13:43:02.413Z,12.01
2022-11-10T13:45:48.074Z,11.90
2022-11-10T13:49:01.899Z,11.80
2022-11-10T13:52:07.232Z,11.82
2022-11-10T13:55:20.063Z,11.89
2022-11-10T13:58:10.022Z,11.85
2022-11-10T14:01:22.557Z,11.72
2022-11-10T14:04:08.182Z,11.68
2022-11-10T14:06:55.091Z,11.57
2022-11-10T14:09:43.404Z,11.59
2022-11-10T14:12:34.307Z,11.52
2022-11-10T14:15:22.711Z,11.61
2022-11-10T14:18:39.341Z,11.53
2022-11-10T14:21:32.136Z,11.38
2022-11-10T14:24:26.312Z,11.43
2022-11-10T14:27:16.041Z,11.26
2022-11-10T14:30:21.504Z,11.20
2022-11-10T14:33:10.175Z,11.25
2022-11-10T14:35:57.945Z,11.20
2022-11-10T14:38:44.351Z,11.12
2022-11-10T14:41:31.641Z,11.08
2022-11-10T14:44:23.531Z,11.07
2022-11-10T14:47:32.955Z,11.02
2022-11-10T14:50:38.213Z,11.05
2022-11-10T14:53:51.175Z,11.04
2022-11-10T14:56:57.111Z,10.97
2022-11-10T15:00:06.821Z,10.91
2022-11-10T15:03:25.485Z,10.82
2022-11-10T15:06:31.164Z,10.81
2022-11-10T15:09:36.499Z,10.80
2022-11-10T15:12:42.306Z,10.74
2022-11-10T15:15:47.600Z,10.80
2022-11-10T15:18:54.926Z,10.74
2022-11-10T15:22:36.459Z,10.68
2022-11-10T15:25:41.631Z,10.63
2022-11-10T15:28:47.261Z,10.69
2022-11-10T15:31:53.143Z,10.63
2022-11-10T15:35:08.662Z,10.62
2022-11-10T15:38:18.128Z,10.58
2022-11-10T15:41:27.619Z,10.65
2022-11-10T15:44:33.251Z,10.59
2022-11-10T15:47:38.402Z,10.53
2022-11-10T15:50:48.940Z,10.56
2022-11-10T15:53:54.526Z,10.49
2022-11-10T15:56:59.546Z,10.53
2022-11-10T16:00:05.237Z,10.51
2022-11-10T16:03:12.041Z,10.47
2022-11-10T16:06:17.023Z,10.50
2022-11-10T16:09:22.276Z,10.47
2022-11-10T16:12:27.914Z,10.50
2022-11-10T16:15:33.440Z,10.48
2022-11-10T16:18:43.627Z,10.47
2022-11-10T16:21:49.581Z,10.44
2022-11-10T16:24:54.669Z,10.40
2022-11-10T16:28:03.566Z,10.40
2022-11-10T16:31:10.613Z,10.31
2022-11-10T16:34:15.946Z,10.23
2022-11-10T16:37:21.197Z,10.26
2022-11-10T16:40:26.428Z,10.25
2022-11-10T16:43:31.678Z,10.18
2022-11-10T16:46:37.210Z,10.20
2022-11-10T16:49:31.659Z,10.15
2022-11-10T16:52:18.849Z,10.18
2022-11-10T16:55:04.766Z,10.08
2022-11-10T16:57:50.103Z,10.05
2022-11-10T17:00:35.942Z,10.15
2022-11-10T17:03:35.656Z,10.12
2022-11-10T17:06:23.574Z,10.10
2022-11-10T17:09:14.517Z,10.08
2022-11-10T17:11:59.806Z,9.99
2022-11-10T17:14:44.986Z,9.98
2022-11-10T17:17:30.330Z,10.04
2022-11-10T17:20:21.692Z,10.07
2022-11-10T17:23:07.495Z,10.06
2022-11-10T17:25:54.099Z,10.03
2022-11-10T17:28:39.373Z,9.94
2022-11-10T17:31:24.742Z,9.98
2022-11-10T17:34:10.116Z,10.08
2022-11-10T17:36:55.353Z,10.04
2022-11-10T17:39:40.746Z,10.12
2022-11-10T17:42:27.073Z,10.06
2022-11-10T17:45:30.334Z,10.05
2022-11-10T17:48:15.712Z,10.07
2022-11-10T17:51:01.472Z,9.99
2022-11-10T17:53:46.696Z,9.92
2022-11-10T17:56:32.596Z,9.96
2022-11-10T17:59:18.164Z,9.99
2022-11-10T18:02:04.111Z,9.93
2022-11-10T18:04:49.715Z,9.90
2022-11-10T18:07:34.816Z,9.90
2022-11-10T18:10:20.194Z,9.83
2022-11-10T18:13:05.491Z,9.79
2022-11-10T18:15:54.248Z,9.63
2022-11-10T18:18:40.067Z,9.52
2022-11-10T18:21:25.517Z,9.49
2022-11-10T18:24:10.901Z,9.38
2022-11-10T18:26:56.181Z,9.41
2022-11-10T18:29:41.635Z,9.39
2022-11-10T18:32:27.129Z,9.27
2022-11-10T18:35:12.561Z,9.21
2022-11-10T18:37:58.372Z,9.10
2022-11-10T18:40:43.967Z,9.07
2022-11-10T18:43:29.606Z,8.97
2022-11-10T18:46:14.882Z,9.01
2022-11-10T18:49:00.392Z,8.85
2022-11-10T18:51:45.762Z,8.91
2022-11-10T18:54:31.336Z,9.00
2022-11-10T18:57:16.826Z,8.96
2022-11-10T19:00:04.964Z,8.80
2022-11-10T19:02:50.506Z,8.77
2022-11-10T19:05:58.726Z,8.59
2022-11-10T19:08:44.444Z,8.42
2022-11-10T19:11:31.288Z,8.38
2022-11-10T19:14:16.854Z,8.37
2022-11-10T19:17:02.764Z,8.29
2022-11-10T19:19:53.505Z,8.30
2022-11-10T19:22:41.773Z,8.26
2022-11-10T19:25:29.750Z,8.32
2022-11-10T19:28:15.186Z,8.33
2022-11-10T19:31:04.879Z,8.21
2022-11-10T19:33:52.933Z,8.14
2022-11-10T19:36:38.449Z,8.06
2022-11-10T19:39:23.934Z,8.04
2022-11-10T19:42:09.365Z,7.94
2022-11-10T19:44:54.726Z,7.93
2022-11-10T19:47:40.390Z,7.88
2022-11-10T19:50:25.900Z,7.75
2022-11-10T19:53:11.141Z,7.69
2022-11-10T19:56:07.773Z,7.68
2022-11-10T19:58:53.221Z,7.66
2022-11-10T20:01:38.548Z,7.62
2022-11-10T20:04:23.811Z,7.59
2022-11-10T20:07:27.683Z,7.59
2022-11-10T20:10:32.891Z,7.51
2022-11-10T20:13:38.604Z,7.41
2022-11-10T20:16:43.741Z,7.35
2022-11-10T20:19:28.965Z,7.30
2022-11-10T20:22:14.549Z,7.23
2022-11-10T20:24:59.793Z,7.15
2022-11-10T20:27:45.229Z,7.10
2022-11-10T20:30:30.616Z,7.18
2022-11-10T20:33:16.032Z,7.22
2022-11-10T20:36:17.368Z,7.23
2022-11-10T20:39:05.609Z,7.34
2022-11-10T20:41:52.562Z,7.41
2022-11-10T20:44:38.206Z,7.32
2022-11-10T20:47:24.122Z,7.51
2022-11-10T20:50:14.803Z,7.56
2022-11-10T20:53:05.752Z,7.49
2022-11-10T20:56:01.977Z,7.46
2022-11-10T20:58:47.601Z,7.49
2022-11-10T21:01:33.718Z,7.58
2022-11-10T21:04:19.033Z,7.48
2022-11-10T21:07:04.613Z,7.38
2022-11-10T21:09:50.313Z,7.37
2022-11-10T21:12:50.415Z,7.41
2022-11-10T21:15:40.410Z,7.40
2022-11-10T21:18:27.735Z,7.38
2022-11-10T21:21:20.006Z,7.30
2022-11-10T21:24:06.962Z,7.18
2022-11-10T21:26:52.598Z,7.07
2022-11-10T21:29:37.925Z,6.97
2022-11-10T21:32:23.298Z,7.00
2022-11-10T21:35:08.865Z,6.93
2022-11-10T21:37:54.063Z,6.94
2022-11-10T21:40:39.715Z,6.92
2022-11-10T21:43:25.404Z,6.75
2022-11-10T21:46:11.120Z,6.69
2022-11-10T21:48:56.431Z,6.62
2022-11-10T21:51:41.827Z,6.64
2022-11-10T21:54:27.130Z,6.83
2022-11-10T21:57:12.388Z,6.84
2022-11-10T21:59:58.012Z,6.80
2022-11-10T22:02:43.247Z,6.83
2022-11-10T22:05:30.687Z,6.82
2022-11-10T22:08:19.639Z,6.58
2022-11-10T22:11:37.837Z,6.44
2022-11-10T22:14:41.931Z,6.29
2022-11-10T22:17:45.883Z,6.26
2022-11-10T22:20:34.353Z,6.31
2022-11-10T22:23:39.644Z,6.45
2022-11-10T22:26:25.169Z,6.64
2022-11-10T22:29:10.778Z,6.82
2022-11-10T22:31:55.790Z,6.98
2022-11-10T22:34:41.083Z,7.06
2022-11-10T22:37:32.907Z,7.23
2022-11-10T22:40:36.678Z,7.39
2022-11-10T22:43:40.488Z,7.43
2022-11-10T22:46:26.112Z,7.48
2022-11-10T22:49:15.673Z,7.51
2022-11-10T22:52:01.342Z,7.52
2022-11-10T22:54:46.817Z,7.55
2022-11-10T22:57:32.120Z,7.57
2022-11-10T23:00:17.674Z,7.60
2022-11-10T23:03:03.353Z,7.65
2022-11-10T23:05:56.094Z,7.68
2022-11-10T23:08:42.474Z,7.75
2022-11-10T23:11:30.177Z,7.64
2022-11-10T23:14:15.528Z,7.65
2022-11-10T23:17:00.876Z,7.67
2022-11-10T23:19:46.045Z,7.61
2022-11-10T23:22:31.417Z,7.60
2022-11-10T23:25:16.601Z,7.54
2022-11-10T23:28:02.027Z,7.70
2022-11-10T23:30:47.112Z,7.61
2022-11-10T23:33:33.546Z,7.56
2022-11-10T23:36:20.367Z,7.53
2022-11-10T23:39:05.578Z,7.39
2022-11-10T23:41:50.913Z,7.47
2022-11-10T23:44:36.157Z,7.39
2022-11-10T23:47:21.381Z,7.46
2022-11-10T23:50:07.093Z,7.49
2022-11-10T23:52:52.534Z,7.42
2022-11-10T23:55:38.248Z,7.45
2022-11-10T23:58:24.228Z,7.44
